sensor_id;sensor_type;location;lat;lon;timestamp;temperature;humidity
1429;DHT22;708;51.442;7.016;2023-09-19T00:00:56;16.90;31.00
1429;DHT22;708;51.442;7.016;2023-09-19T00:03:23;16.90;27.30
1429;DHT22;708;51.442;7.016;2023-09-19T00:05:51;16.90;25.00
1429;DHT22;708;51.442;7.016;2023-09-19T00:08:18;16.80;23.90
1429;DHT22;708;51.442;7.016;2023-09-19T00:10:49;16.80;25.40
1429;DHT22;708;51.442;7.016;2023-09-19T00:13:16;16.80;24.20
1429;DHT22;708;51.442;7.016;2023-09-19T00:15:45;16.80;25.40
1429;DHT22;708;51.442;7.016;2023-09-19T00:18:14;16.70;27.00
1429;DHT22;708;51.442;7.016;2023-09-19T00:20:42;16.70;27.40
1429;DHT22;708;51.442;7.016;2023-09-19T00:23:14;16.60;30.00
1429;DHT22;708;51.442;7.016;2023-09-19T00:25:42;16.60;34.70
1429;DHT22;708;51.442;7.016;2023-09-19T00:28:09;16.60;44.20
1429;DHT22;708;51.442;7.016;2023-09-19T00:30:36;16.50;46.40
1429;DHT22;708;51.442;7.016;2023-09-19T00:33:04;16.60;52.00
1429;DHT22;708;51.442;7.016;2023-09-19T00:35:33;16.50;52.20
1429;DHT22;708;51.442;7.016;2023-09-19T00:38:00;16.50;54.60
1429;DHT22;708;51.442;7.016;2023-09-19T00:40:28;16.50;49.00
1429;DHT22;708;51.442;7.016;2023-09-19T00:42:57;16.50;45.90
1429;DHT22;708;51.442;7.016;2023-09-19T00:45:25;16.50;46.80
1429;DHT22;708;51.442;7.016;2023-09-19T00:47:54;16.50;40.90
1429;DHT22;708;51.442;7.016;2023-09-19T00:50:23;16.40;37.50
1429;DHT22;708;51.442;7.016;2023-09-19T00:52:53;16.40;34.60
1429;DHT22;708;51.442;7.016;2023-09-19T00:55:21;16.40;27.30
1429;DHT22;708;51.442;7.016;2023-09-19T00:57:51;16.40;28.70
1429;DHT22;708;51.442;7.016;2023-09-19T01:00:18;16.40;26.50
1429;DHT22;708;51.442;7.016;2023-09-19T01:02:46;16.40;25.70
1429;DHT22;708;51.442;7.016;2023-09-19T01:05:13;16.30;26.00
1429;DHT22;708;51.442;7.016;2023-09-19T01:07:40;16.30;28.30
1429;DHT22;708;51.442;7.016;2023-09-19T01:10:09;16.30;27.90
1429;DHT22;708;51.442;7.016;2023-09-19T01:12:48;16.30;31.80
1429;DHT22;708;51.442;7.016;2023-09-19T01:15:24;16.20;28.90
1429;DHT22;708;51.442;7.016;2023-09-19T01:17:59;16.30;32.10
1429;DHT22;708;51.442;7.016;2023-09-19T01:20:34;16.20;32.50
1429;DHT22;708;51.442;7.016;2023-09-19T01:23:12;16.30;32.90
1429;DHT22;708;51.442;7.016;2023-09-19T01:26:15;16.20;34.90
1429;DHT22;708;51.442;7.016;2023-09-19T01:29:05;16.20;32.10
1429;DHT22;708;51.442;7.016;2023-09-19T01:31:40;16.20;35.60
1429;DHT22;708;51.442;7.016;2023-09-19T01:34:09;16.20;39.40
1429;DHT22;708;51.442;7.016;2023-09-19T01:36:38;16.10;33.50
1429;DHT22;708;51.442;7.016;2023-09-19T01:39:06;16.10;34.50
1429;DHT22;708;51.442;7.016;2023-09-19T01:41:47;16.10;34.00
1429;DHT22;708;51.442;7.016;2023-09-19T01:44:22;16.10;32.60
1429;DHT22;708;51.442;7.016;2023-09-19T01:46:51;16.10;32.40
1429;DHT22;708;51.442;7.016;2023-09-19T01:49:27;16.10;29.10
1429;DHT22;708;51.442;7.016;2023-09-19T01:52:05;16.10;27.60
1429;DHT22;708;51.442;7.016;2023-09-19T01:54:45;16.00;24.40
1429;DHT22;708;51.442;7.016;2023-09-19T01:57:17;16.00;26.40
1429;DHT22;708;51.442;7.016;2023-09-19T01:59:52;16.00;26.60
1429;DHT22;708;51.442;7.016;2023-09-19T02:02:23;16.00;26.00
1429;DHT22;708;51.442;7.016;2023-09-19T02:04:51;16.00;27.10
1429;DHT22;708;51.442;7.016;2023-09-19T02:07:18;16.00;23.00
1429;DHT22;708;51.442;7.016;2023-09-19T02:09:45;15.90;25.50
1429;DHT22;708;51.442;7.016;2023-09-19T02:12:13;15.90;24.30
1429;DHT22;708;51.442;7.016;2023-09-19T02:14:40;15.90;25.40
1429;DHT22;708;51.442;7.016;2023-09-19T02:17:07;15.90;24.40
1429;DHT22;708;51.442;7.016;2023-09-19T02:19:38;15.90;23.60
1429;DHT22;708;51.442;7.016;2023-09-19T02:22:06;15.90;23.50
1429;DHT22;708;51.442;7.016;2023-09-19T02:24:36;15.90;23.10
1429;DHT22;708;51.442;7.016;2023-09-19T02:27:03;15.80;24.60
1429;DHT22;708;51.442;7.016;2023-09-19T02:29:31;15.80;26.20
1429;DHT22;708;51.442;7.016;2023-09-19T02:31:59;15.80;22.70
1429;DHT22;708;51.442;7.016;2023-09-19T02:34:28;15.80;21.10
1429;DHT22;708;51.442;7.016;2023-09-19T02:36:56;15.80;24.30
1429;DHT22;708;51.442;7.016;2023-09-19T02:39:23;15.80;23.30
1429;DHT22;708;51.442;7.016;2023-09-19T02:41:50;15.80;22.40
1429;DHT22;708;51.442;7.016;2023-09-19T02:44:16;15.80;23.90
1429;DHT22;708;51.442;7.016;2023-09-19T02:46:45;15.80;22.50
1429;DHT22;708;51.442;7.016;2023-09-19T02:49:12;15.80;19.90
1429;DHT22;708;51.442;7.016;2023-09-19T02:51:39;15.80;14.80
1429;DHT22;708;51.442;7.016;2023-09-19T02:54:08;15.80;13.10
1429;DHT22;708;51.442;7.016;2023-09-19T02:56:35;15.80;10.50
1429;DHT22;708;51.442;7.016;2023-09-19T02:59:02;15.80;7.60
1429;DHT22;708;51.442;7.016;2023-09-19T03:01:29;15.80;8.10
1429;DHT22;708;51.442;7.016;2023-09-19T03:03:56;15.80;2.90
1429;DHT22;708;51.442;7.016;2023-09-19T03:06:24;15.80;1.00
1429;DHT22;708;51.442;7.016;2023-09-19T03:08:50;15.80;1.00
1429;DHT22;708;51.442;7.016;2023-09-19T03:11:19;15.80;1.00
1429;DHT22;708;51.442;7.016;2023-09-19T03:13:51;15.80;1.00
1429;DHT22;708;51.442;7.016;2023-09-19T03:16:18;15.80;1.00
1429;DHT22;708;51.442;7.016;2023-09-19T03:18:47;15.80;1.00
1429;DHT22;708;51.442;7.016;2023-09-19T03:21:14;15.80;1.00
1429;DHT22;708;51.442;7.016;2023-09-19T03:23:41;15.80;1.00
1429;DHT22;708;51.442;7.016;2023-09-19T03:26:10;15.80;1.00
1429;DHT22;708;51.442;7.016;2023-09-19T03:28:39;15.80;1.00
1429;DHT22;708;51.442;7.016;2023-09-19T03:31:06;15.80;1.00
1429;DHT22;708;51.442;7.016;2023-09-19T03:33:34;15.80;1.00
1429;DHT22;708;51.442;7.016;2023-09-19T03:36:02;15.80;1.00
1429;DHT22;708;51.442;7.016;2023-09-19T03:38:30;15.80;1.00
1429;DHT22;708;51.442;7.016;2023-09-19T03:40:58;15.80;1.00
1429;DHT22;708;51.442;7.016;2023-09-19T03:43:25;15.70;1.00
1429;DHT22;708;51.442;7.016;2023-09-19T03:45:53;15.70;1.00
1429;DHT22;708;51.442;7.016;2023-09-19T03:48:20;15.70;1.00
1429;DHT22;708;51.442;7.016;2023-09-19T03:50:48;15.70;1.00
1429;DHT22;708;51.442;7.016;2023-09-19T03:53:16;15.70;1.00
1429;DHT22;708;51.442;7.016;2023-09-19T03:55:44;15.70;1.00
1429;DHT22;708;51.442;7.016;2023-09-19T03:58:11;15.60;1.00
1429;DHT22;708;51.442;7.016;2023-09-19T04:00:38;15.70;1.00
1429;DHT22;708;51.442;7.016;2023-09-19T04:03:06;15.60;1.00
1429;DHT22;708;51.442;7.016;2023-09-19T04:05:33;15.70;1.00
1429;DHT22;708;51.442;7.016;2023-09-19T04:08:00;15.60;1.00
1429;DHT22;708;51.442;7.016;2023-09-19T04:10:27;15.70;1.00
1429;DHT22;708;51.442;7.016;2023-09-19T04:12:55;15.60;1.00
1429;DHT22;708;51.442;7.016;2023-09-19T04:15:22;15.60;1.00
1429;DHT22;708;51.442;7.016;2023-09-19T04:17:49;15.60;1.00
1429;DHT22;708;51.442;7.016;2023-09-19T04:20:18;15.70;1.00
1429;DHT22;708;51.442;7.016;2023-09-19T04:22:45;15.60;1.00
1429;DHT22;708;51.442;7.016;2023-09-19T04:25:12;15.60;1.00
1429;DHT22;708;51.442;7.016;2023-09-19T04:27:40;15.60;1.00
1429;DHT22;708;51.442;7.016;2023-09-19T04:30:08;15.60;1.00
1429;DHT22;708;51.442;7.016;2023-09-19T04:32:37;15.60;1.00
1429;DHT22;708;51.442;7.016;2023-09-19T04:35:06;15.70;1.00
1429;DHT22;708;51.442;7.016;2023-09-19T04:37:36;15.70;1.00
1429;DHT22;708;51.442;7.016;2023-09-19T04:40:08;15.70;1.00
1429;DHT22;708;51.442;7.016;2023-09-19T04:42:40;15.80;1.00
1429;DHT22;708;51.442;7.016;2023-09-19T04:45:07;15.70;1.00
1429;DHT22;708;51.442;7.016;2023-09-19T04:47:36;15.80;1.00
1429;DHT22;708;51.442;7.016;2023-09-19T04:50:05;15.80;1.00
1429;DHT22;708;51.442;7.016;2023-09-19T04:52:33;15.80;1.00
1429;DHT22;708;51.442;7.016;2023-09-19T04:55:02;15.80;1.00
1429;DHT22;708;51.442;7.016;2023-09-19T04:57:29;15.80;1.00
1429;DHT22;708;51.442;7.016;2023-09-19T04:59:56;15.80;1.00
1429;DHT22;708;51.442;7.016;2023-09-19T05:02:23;15.80;1.00
1429;DHT22;708;51.442;7.016;2023-09-19T05:04:50;15.80;1.00
1429;DHT22;708;51.442;7.016;2023-09-19T05:07:19;15.80;1.00
1429;DHT22;708;51.442;7.016;2023-09-19T05:09:47;15.80;1.00
1429;DHT22;708;51.442;7.016;2023-09-19T05:12:15;15.80;1.00
1429;DHT22;708;51.442;7.016;2023-09-19T05:14:45;15.80;1.00
1429;DHT22;708;51.442;7.016;2023-09-19T05:17:13;15.80;1.00
1429;DHT22;708;51.442;7.016;2023-09-19T05:19:42;15.80;1.00
1429;DHT22;708;51.442;7.016;2023-09-19T05:22:09;15.90;1.00
1429;DHT22;708;51.442;7.016;2023-09-19T05:24:38;15.90;1.00
1429;DHT22;708;51.442;7.016;2023-09-19T05:27:05;15.90;1.00
1429;DHT22;708;51.442;7.016;2023-09-19T05:29:34;15.90;1.00
1429;DHT22;708;51.442;7.016;2023-09-19T05:32:01;15.90;1.00
1429;DHT22;708;51.442;7.016;2023-09-19T05:34:29;16.00;1.00
1429;DHT22;708;51.442;7.016;2023-09-19T05:36:56;15.90;1.00
1429;DHT22;708;51.442;7.016;2023-09-19T05:39:22;16.00;1.00
1429;DHT22;708;51.442;7.016;2023-09-19T05:41:49;16.00;1.00
1429;DHT22;708;51.442;7.016;2023-09-19T05:44:16;16.10;1.00
1429;DHT22;708;51.442;7.016;2023-09-19T05:46:44;16.10;1.00
1429;DHT22;708;51.442;7.016;2023-09-19T05:49:13;16.20;1.00
1429;DHT22;708;51.442;7.016;2023-09-19T05:51:41;16.20;1.00
1429;DHT22;708;51.442;7.016;2023-09-19T05:54:08;16.30;1.00
1429;DHT22;708;51.442;7.016;2023-09-19T05:56:36;16.40;1.00
1429;DHT22;708;51.442;7.016;2023-09-19T05:59:03;16.50;1.00
1429;DHT22;708;51.442;7.016;2023-09-19T06:01:30;16.60;1.00
1429;DHT22;708;51.442;7.016;2023-09-19T06:03:59;16.60;1.00
1429;DHT22;708;51.442;7.016;2023-09-19T06:06:26;16.70;1.00
1429;DHT22;708;51.442;7.016;2023-09-19T06:08:53;16.80;1.00
1429;DHT22;708;51.442;7.016;2023-09-19T06:11:19;16.80;1.00
1429;DHT22;708;51.442;7.016;2023-09-19T06:13:47;16.80;1.00
1429;DHT22;708;51.442;7.016;2023-09-19T06:16:13;16.90;1.00
1429;DHT22;708;51.442;7.016;2023-09-19T06:18:40;16.90;1.00
1429;DHT22;708;51.442;7.016;2023-09-19T06:21:08;17.00;1.00
1429;DHT22;708;51.442;7.016;2023-09-19T06:23:35;17.10;1.00
1429;DHT22;708;51.442;7.016;2023-09-19T06:26:02;17.10;1.00
1429;DHT22;708;51.442;7.016;2023-09-19T06:28:32;17.20;1.00
1429;DHT22;708;51.442;7.016;2023-09-19T06:30:59;17.20;1.00
1429;DHT22;708;51.442;7.016;2023-09-19T06:33:27;17.20;1.00
1429;DHT22;708;51.442;7.016;2023-09-19T06:35:56;17.20;1.00
1429;DHT22;708;51.442;7.016;2023-09-19T06:38:27;17.30;1.00
1429;DHT22;708;51.442;7.016;2023-09-19T06:40:54;17.30;1.00
1429;DHT22;708;51.442;7.016;2023-09-19T06:43:21;17.40;1.00
1429;DHT22;708;51.442;7.016;2023-09-19T06:45:47;17.50;1.00
1429;DHT22;708;51.442;7.016;2023-09-19T06:48:14;17.60;1.00
1429;DHT22;708;51.442;7.016;2023-09-19T06:50:41;17.60;1.00
1429;DHT22;708;51.442;7.016;2023-09-19T06:53:09;17.80;1.00
1429;DHT22;708;51.442;7.016;2023-09-19T06:55:38;17.80;99.90
1429;DHT22;708;51.442;7.016;2023-09-19T06:58:04;17.90;99.90
1429;DHT22;708;51.442;7.016;2023-09-19T07:00:31;18.00;99.90
1429;DHT22;708;51.442;7.016;2023-09-19T07:03:03;18.10;99.90
1429;DHT22;708;51.442;7.016;2023-09-19T07:05:34;18.20;99.90
1429;DHT22;708;51.442;7.016;2023-09-19T07:08:03;18.30;99.90
1429;DHT22;708;51.442;7.016;2023-09-19T07:10:32;18.40;99.90
1429;DHT22;708;51.442;7.016;2023-09-19T07:13:01;18.40;99.90
1429;DHT22;708;51.442;7.016;2023-09-19T07:15:29;18.60;99.90
1429;DHT22;708;51.442;7.016;2023-09-19T07:17:59;18.80;99.90
1429;DHT22;708;51.442;7.016;2023-09-19T07:20:26;18.80;99.90
1429;DHT22;708;51.442;7.016;2023-09-19T07:22:57;19.00;99.90
1429;DHT22;708;51.442;7.016;2023-09-19T07:25:25;19.20;99.90
1429;DHT22;708;51.442;7.016;2023-09-19T07:27:52;19.30;99.90
1429;DHT22;708;51.442;7.016;2023-09-19T07:30:20;19.50;99.90
1429;DHT22;708;51.442;7.016;2023-09-19T07:32:47;19.70;61.00
1429;DHT22;708;51.442;7.016;2023-09-19T07:35:14;19.90;1.00
1429;DHT22;708;51.442;7.016;2023-09-19T07:37:41;19.90;1.00
1429;DHT22;708;51.442;7.016;2023-09-19T07:40:09;20.00;1.00
1429;DHT22;708;51.442;7.016;2023-09-19T07:42:36;20.10;1.00
1429;DHT22;708;51.442;7.016;2023-09-19T07:45:07;20.20;1.00
1429;DHT22;708;51.442;7.016;2023-09-19T07:47:35;20.40;99.90
1429;DHT22;708;51.442;7.016;2023-09-19T07:50:03;20.60;99.90
1429;DHT22;708;51.442;7.016;2023-09-19T07:52:29;20.60;99.90
1429;DHT22;708;51.442;7.016;2023-09-19T07:54:59;20.60;99.90
1429;DHT22;708;51.442;7.016;2023-09-19T07:57:27;20.70;92.00
1429;DHT22;708;51.442;7.016;2023-09-19T07:59:54;20.80;3.20
1429;DHT22;708;51.442;7.016;2023-09-19T08:02:21;20.80;1.00
1429;DHT22;708;51.442;7.016;2023-09-19T08:04:49;20.70;1.00
1429;DHT22;708;51.442;7.016;2023-09-19T08:07:17;20.90;1.00
1429;DHT22;708;51.442;7.016;2023-09-19T08:09:44;21.10;32.10
1429;DHT22;708;51.442;7.016;2023-09-19T08:12:14;21.30;90.00
1429;DHT22;708;51.442;7.016;2023-09-19T08:14:42;21.70;1.00
1429;DHT22;708;51.442;7.016;2023-09-19T08:17:09;22.00;99.90
1429;DHT22;708;51.442;7.016;2023-09-19T08:19:36;22.20;99.90
1429;DHT22;708;51.442;7.016;2023-09-19T08:22:07;22.10;1.00
1429;DHT22;708;51.442;7.016;2023-09-19T08:24:36;22.20;99.90
1429;DHT22;708;51.442;7.016;2023-09-19T08:27:04;22.40;1.00
1429;DHT22;708;51.442;7.016;2023-09-19T08:29:31;22.60;1.00
1429;DHT22;708;51.442;7.016;2023-09-19T08:31:58;22.80;99.90
1429;DHT22;708;51.442;7.016;2023-09-19T08:34:25;23.10;99.90
1429;DHT22;708;51.442;7.016;2023-09-19T08:36:52;23.10;99.90
1429;DHT22;708;51.442;7.016;2023-09-19T08:39:23;23.20;99.90
1429;DHT22;708;51.442;7.016;2023-09-19T08:41:57;23.10;99.90
1429;DHT22;708;51.442;7.016;2023-09-19T08:44:24;23.30;99.90
1429;DHT22;708;51.442;7.016;2023-09-19T08:46:55;23.70;99.90
1429;DHT22;708;51.442;7.016;2023-09-19T08:49:27;24.30;99.90
1429;DHT22;708;51.442;7.016;2023-09-19T08:52:04;24.70;99.90
1429;DHT22;708;51.442;7.016;2023-09-19T08:54:37;25.20;99.90
1429;DHT22;708;51.442;7.016;2023-09-19T08:57:07;25.80;99.90
1429;DHT22;708;51.442;7.016;2023-09-19T08:59:37;26.20;99.20
1429;DHT22;708;51.442;7.016;2023-09-19T09:02:11;26.30;96.70
1429;DHT22;708;51.442;7.016;2023-09-19T09:04:39;26.00;96.90
1429;DHT22;708;51.442;7.016;2023-09-19T09:07:10;26.00;97.60
1429;DHT22;708;51.442;7.016;2023-09-19T09:09:39;26.40;96.10
1429;DHT22;708;51.442;7.016;2023-09-19T09:12:08;26.40;95.60
1429;DHT22;708;51.442;7.016;2023-09-19T09:14:38;26.60;94.70
1429;DHT22;708;51.442;7.016;2023-09-19T09:17:04;26.70;93.70
1429;DHT22;708;51.442;7.016;2023-09-19T09:19:32;26.60;94.00
1429;DHT22;708;51.442;7.016;2023-09-19T09:22:06;26.50;94.00
1429;DHT22;708;51.442;7.016;2023-09-19T09:24:34;26.70;93.80
1429;DHT22;708;51.442;7.016;2023-09-19T09:27:05;26.90;92.60
1429;DHT22;708;51.442;7.016;2023-09-19T09:29:42;26.90;92.40
1429;DHT22;708;51.442;7.016;2023-09-19T09:32:23;27.00;92.20
1429;DHT22;708;51.442;7.016;2023-09-19T09:34:52;26.80;91.80
1429;DHT22;708;51.442;7.016;2023-09-19T09:37:20;26.80;92.10
1429;DHT22;708;51.442;7.016;2023-09-19T09:39:51;27.00;91.60
1429;DHT22;708;51.442;7.016;2023-09-19T09:42:32;27.00;91.10
1429;DHT22;708;51.442;7.016;2023-09-19T09:45:17;26.90;90.70
1429;DHT22;708;51.442;7.016;2023-09-19T09:47:45;26.40;90.90
1429;DHT22;708;51.442;7.016;2023-09-19T09:50:26;25.50;92.50
1429;DHT22;708;51.442;7.016;2023-09-19T09:53:19;25.10;93.50
1429;DHT22;708;51.442;7.016;2023-09-19T09:56:03;24.70;99.90
1429;DHT22;708;51.442;7.016;2023-09-19T09:58:34;24.20;99.90
1429;DHT22;708;51.442;7.016;2023-09-19T10:01:03;23.90;99.90
1429;DHT22;708;51.442;7.016;2023-09-19T10:03:37;23.70;1.00
1429;DHT22;708;51.442;7.016;2023-09-19T10:06:11;23.70;1.00
1429;DHT22;708;51.442;7.016;2023-09-19T10:09:00;23.60;1.00
1429;DHT22;708;51.442;7.016;2023-09-19T10:11:41;23.30;1.00
1429;DHT22;708;51.442;7.016;2023-09-19T10:14:11;23.20;1.00
1429;DHT22;708;51.442;7.016;2023-09-19T10:16:46;23.40;1.00
1429;DHT22;708;51.442;7.016;2023-09-19T10:19:16;23.50;1.00
1429;DHT22;708;51.442;7.016;2023-09-19T10:21:48;23.70;1.00
1429;DHT22;708;51.442;7.016;2023-09-19T10:24:16;23.70;1.00
1429;DHT22;708;51.442;7.016;2023-09-19T10:26:44;23.60;1.00
1429;DHT22;708;51.442;7.016;2023-09-19T10:29:13;23.40;99.90
1429;DHT22;708;51.442;7.016;2023-09-19T10:31:42;23.30;1.00
1429;DHT22;708;51.442;7.016;2023-09-19T10:34:13;23.30;1.00
1429;DHT22;708;51.442;7.016;2023-09-19T10:36:44;23.30;1.00
1429;DHT22;708;51.442;7.016;2023-09-19T10:39:14;23.40;1.00
1429;DHT22;708;51.442;7.016;2023-09-19T10:41:49;23.50;1.00
1429;DHT22;708;51.442;7.016;2023-09-19T10:44:22;23.30;1.00
1429;DHT22;708;51.442;7.016;2023-09-19T10:46:51;23.30;1.00
1429;DHT22;708;51.442;7.016;2023-09-19T10:49:19;23.20;1.00
1429;DHT22;708;51.442;7.016;2023-09-19T10:51:47;23.00;1.00
1429;DHT22;708;51.442;7.016;2023-09-19T10:54:17;22.90;1.00
1429;DHT22;708;51.442;7.016;2023-09-19T10:56:47;22.90;1.00
1429;DHT22;708;51.442;7.016;2023-09-19T10:59:17;22.90;1.00
1429;DHT22;708;51.442;7.016;2023-09-19T11:01:47;22.90;1.00
1429;DHT22;708;51.442;7.016;2023-09-19T11:04:27;22.80;1.00
1429;DHT22;708;51.442;7.016;2023-09-19T11:07:02;22.50;1.00
1429;DHT22;708;51.442;7.016;2023-09-19T11:09:46;22.30;1.00
1429;DHT22;708;51.442;7.016;2023-09-19T11:21:54;22.30;99.90
1429;DHT22;708;51.442;7.016;2023-09-19T11:24:28;22.50;59.30
1429;DHT22;708;51.442;7.016;2023-09-19T11:27:12;22.40;1.00
1429;DHT22;708;51.442;7.016;2023-09-19T11:29:40;22.30;1.00
1429;DHT22;708;51.442;7.016;2023-09-19T11:32:07;22.20;1.00
1429;DHT22;708;51.442;7.016;2023-09-19T11:34:45;22.30;1.00
1429;DHT22;708;51.442;7.016;2023-09-19T11:40:37;22.70;1.00
1429;DHT22;708;51.442;7.016;2023-09-19T11:43:29;22.80;1.00
1429;DHT22;708;51.442;7.016;2023-09-19T11:46:05;22.80;1.00
1429;DHT22;708;51.442;7.016;2023-09-19T11:48:32;23.00;1.00
1429;DHT22;708;51.442;7.016;2023-09-19T11:51:10;23.10;1.00
1429;DHT22;708;51.442;7.016;2023-09-19T11:53:42;23.20;1.00
1429;DHT22;708;51.442;7.016;2023-09-19T11:56:11;23.40;1.00
1429;DHT22;708;51.442;7.016;2023-09-19T11:58:41;23.50;99.90
1429;DHT22;708;51.442;7.016;2023-09-19T12:01:09;23.20;99.90
1429;DHT22;708;51.442;7.016;2023-09-19T12:03:43;23.20;99.90
1429;DHT22;708;51.442;7.016;2023-09-19T12:06:13;23.10;99.90
1429;DHT22;708;51.442;7.016;2023-09-19T12:08:41;22.90;99.90
1429;DHT22;708;51.442;7.016;2023-09-19T12:11:17;22.80;99.90
1429;DHT22;708;51.442;7.016;2023-09-19T12:13:46;22.80;1.00
1429;DHT22;708;51.442;7.016;2023-09-19T12:16:15;22.80;1.00
1429;DHT22;708;51.442;7.016;2023-09-19T12:18:43;22.70;99.90
1429;DHT22;708;51.442;7.016;2023-09-19T12:21:22;22.50;1.00
1429;DHT22;708;51.442;7.016;2023-09-19T12:24:07;22.50;1.00
1429;DHT22;708;51.442;7.016;2023-09-19T12:26:42;22.50;1.00
1429;DHT22;708;51.442;7.016;2023-09-19T12:29:13;22.60;1.00
1429;DHT22;708;51.442;7.016;2023-09-19T12:31:48;22.60;99.90
1429;DHT22;708;51.442;7.016;2023-09-19T12:34:16;22.50;99.90
1429;DHT22;708;51.442;7.016;2023-09-19T12:36:45;22.50;99.90
1429;DHT22;708;51.442;7.016;2023-09-19T12:39:22;22.40;99.90
1429;DHT22;708;51.442;7.016;2023-09-19T12:41:53;22.40;99.90
1429;DHT22;708;51.442;7.016;2023-09-19T12:44:20;22.40;99.90
1429;DHT22;708;51.442;7.016;2023-09-19T12:46:51;22.30;99.90
1429;DHT22;708;51.442;7.016;2023-09-19T12:49:20;22.30;99.90
1429;DHT22;708;51.442;7.016;2023-09-19T12:51:48;22.30;99.90
1429;DHT22;708;51.442;7.016;2023-09-19T12:54:16;22.30;99.90
1429;DHT22;708;51.442;7.016;2023-09-19T12:56:44;22.40;99.90
1429;DHT22;708;51.442;7.016;2023-09-19T12:59:15;22.40;99.90
1429;DHT22;708;51.442;7.016;2023-09-19T13:01:42;22.30;99.90
1429;DHT22;708;51.442;7.016;2023-09-19T13:04:15;22.30;99.90
1429;DHT22;708;51.442;7.016;2023-09-19T13:06:44;22.30;99.90
1429;DHT22;708;51.442;7.016;2023-09-19T13:09:11;22.40;99.90
1429;DHT22;708;51.442;7.016;2023-09-19T13:11:40;22.50;99.90
1429;DHT22;708;51.442;7.016;2023-09-19T13:14:19;22.50;99.90
1429;DHT22;708;51.442;7.016;2023-09-19T13:16:54;22.50;99.90
1429;DHT22;708;51.442;7.016;2023-09-19T13:19:39;22.60;99.90
1429;DHT22;708;51.442;7.016;2023-09-19T13:22:36;22.50;99.90
1429;DHT22;708;51.442;7.016;2023-09-19T13:25:05;22.50;99.90
1429;DHT22;708;51.442;7.016;2023-09-19T13:27:34;22.50;99.90
1429;DHT22;708;51.442;7.016;2023-09-19T13:30:02;22.60;99.90
1429;DHT22;708;51.442;7.016;2023-09-19T13:32:32;22.60;99.90
1429;DHT22;708;51.442;7.016;2023-09-19T13:34:59;22.50;99.90
1429;DHT22;708;51.442;7.016;2023-09-19T13:37:25;22.60;99.90
1429;DHT22;708;51.442;7.016;2023-09-19T13:39:52;22.70;99.90
1429;DHT22;708;51.442;7.016;2023-09-19T13:42:19;22.70;99.90
1429;DHT22;708;51.442;7.016;2023-09-19T13:44:47;22.80;99.90
1429;DHT22;708;51.442;7.016;2023-09-19T13:47:15;22.80;99.90
1429;DHT22;708;51.442;7.016;2023-09-19T13:49:42;23.00;99.90
1429;DHT22;708;51.442;7.016;2023-09-19T13:52:09;23.00;99.90
1429;DHT22;708;51.442;7.016;2023-09-19T13:54:40;23.00;99.90
1429;DHT22;708;51.442;7.016;2023-09-19T13:57:06;23.00;99.90
1429;DHT22;708;51.442;7.016;2023-09-19T13:59:33;22.90;99.90
1429;DHT22;708;51.442;7.016;2023-09-19T14:02:00;23.00;99.90
1429;DHT22;708;51.442;7.016;2023-09-19T14:04:30;22.90;99.90
1429;DHT22;708;51.442;7.016;2023-09-19T14:06:59;23.00;99.90
1429;DHT22;708;51.442;7.016;2023-09-19T14:09:26;23.10;99.90
1429;DHT22;708;51.442;7.016;2023-09-19T14:12:11;23.20;99.90
1429;DHT22;708;51.442;7.016;2023-09-19T14:14:43;23.10;99.90
1429;DHT22;708;51.442;7.016;2023-09-19T14:17:10;22.80;99.90
1429;DHT22;708;51.442;7.016;2023-09-19T14:19:40;22.80;99.90
1429;DHT22;708;51.442;7.016;2023-09-19T14:22:09;22.80;99.90
1429;DHT22;708;51.442;7.016;2023-09-19T14:24:36;22.80;99.90
1429;DHT22;708;51.442;7.016;2023-09-19T14:27:04;22.70;99.90
1429;DHT22;708;51.442;7.016;2023-09-19T14:29:32;22.70;99.90
1429;DHT22;708;51.442;7.016;2023-09-19T14:31:59;22.70;99.90
1429;DHT22;708;51.442;7.016;2023-09-19T14:34:25;22.60;99.90
1429;DHT22;708;51.442;7.016;2023-09-19T14:36:54;22.60;99.90
1429;DHT22;708;51.442;7.016;2023-09-19T14:39:21;22.50;99.90
1429;DHT22;708;51.442;7.016;2023-09-19T14:41:49;22.40;1.00
1429;DHT22;708;51.442;7.016;2023-09-19T14:44:15;22.30;1.00
1429;DHT22;708;51.442;7.016;2023-09-19T14:46:42;22.20;1.00
1429;DHT22;708;51.442;7.016;2023-09-19T14:49:10;22.20;1.00
1429;DHT22;708;51.442;7.016;2023-09-19T14:51:38;22.30;1.00
1429;DHT22;708;51.442;7.016;2023-09-19T14:54:07;22.20;1.00
1429;DHT22;708;51.442;7.016;2023-09-19T14:56:34;22.10;1.00
1429;DHT22;708;51.442;7.016;2023-09-19T14:59:01;22.10;1.00
1429;DHT22;708;51.442;7.016;2023-09-19T15:01:28;22.10;1.00
1429;DHT22;708;51.442;7.016;2023-09-19T15:03:55;22.10;1.00
1429;DHT22;708;51.442;7.016;2023-09-19T15:06:22;22.00;38.50
1429;DHT22;708;51.442;7.016;2023-09-19T15:08:49;21.90;99.90
1429;DHT22;708;51.442;7.016;2023-09-19T15:11:17;21.90;99.90
1429;DHT22;708;51.442;7.016;2023-09-19T15:13:46;21.80;99.90
1429;DHT22;708;51.442;7.016;2023-09-19T15:16:13;21.80;99.90
1429;DHT22;708;51.442;7.016;2023-09-19T15:18:44;21.70;99.90
1429;DHT22;708;51.442;7.016;2023-09-19T15:21:13;21.50;99.90
1429;DHT22;708;51.442;7.016;2023-09-19T15:23:42;21.50;99.90
1429;DHT22;708;51.442;7.016;2023-09-19T15:26:11;21.50;1.00
1429;DHT22;708;51.442;7.016;2023-09-19T15:28:40;21.50;1.00
1429;DHT22;708;51.442;7.016;2023-09-19T15:31:08;21.40;1.00
1429;DHT22;708;51.442;7.016;2023-09-19T15:33:35;21.50;1.00
1429;DHT22;708;51.442;7.016;2023-09-19T15:36:03;21.50;1.00
1429;DHT22;708;51.442;7.016;2023-09-19T15:38:31;21.50;1.00
1429;DHT22;708;51.442;7.016;2023-09-19T15:40:58;21.50;1.00
1429;DHT22;708;51.442;7.016;2023-09-19T15:43:25;21.60;1.00
1429;DHT22;708;51.442;7.016;2023-09-19T15:45:53;21.70;99.90
1429;DHT22;708;51.442;7.016;2023-09-19T15:48:20;21.80;99.90
1429;DHT22;708;51.442;7.016;2023-09-19T15:50:47;21.90;99.90
1429;DHT22;708;51.442;7.016;2023-09-19T15:53:16;21.80;99.90
1429;DHT22;708;51.442;7.016;2023-09-19T15:55:43;21.80;99.90
1429;DHT22;708;51.442;7.016;2023-09-19T15:58:10;21.80;99.90
1429;DHT22;708;51.442;7.016;2023-09-19T16:00:40;21.80;99.90
1429;DHT22;708;51.442;7.016;2023-09-19T16:03:08;21.70;99.90
1429;DHT22;708;51.442;7.016;2023-09-19T16:05:36;21.70;99.90
1429;DHT22;708;51.442;7.016;2023-09-19T16:08:05;21.60;99.90
1429;DHT22;708;51.442;7.016;2023-09-19T16:10:35;21.50;99.90
1429;DHT22;708;51.442;7.016;2023-09-19T16:13:03;21.30;1.00
1429;DHT22;708;51.442;7.016;2023-09-19T16:15:30;21.20;1.00
1429;DHT22;708;51.442;7.016;2023-09-19T16:17:57;21.10;33.80
1429;DHT22;708;51.442;7.016;2023-09-19T16:20:25;21.00;99.90
1429;DHT22;708;51.442;7.016;2023-09-19T16:22:53;20.90;99.90
1429;DHT22;708;51.442;7.016;2023-09-19T16:25:20;20.80;99.90
1429;DHT22;708;51.442;7.016;2023-09-19T16:27:47;20.80;1.00
1429;DHT22;708;51.442;7.016;2023-09-19T16:30:14;20.70;1.00
1429;DHT22;708;51.442;7.016;2023-09-19T16:32:41;20.70;76.20
1429;DHT22;708;51.442;7.016;2023-09-19T16:35:11;20.80;89.20
1429;DHT22;708;51.442;7.016;2023-09-19T16:37:39;20.80;1.00
1429;DHT22;708;51.442;7.016;2023-09-19T16:40:07;20.80;1.00
1429;DHT22;708;51.442;7.016;2023-09-19T16:42:35;20.80;1.00
1429;DHT22;708;51.442;7.016;2023-09-19T16:45:03;20.80;1.00
1429;DHT22;708;51.442;7.016;2023-09-19T16:47:30;20.80;1.00
1429;DHT22;708;51.442;7.016;2023-09-19T16:49:57;20.70;1.00
1429;DHT22;708;51.442;7.016;2023-09-19T16:52:24;20.60;99.90